Time;durP1;ratioP1;P1;durP2;ratioP2;P2;SDS_P1;SDS_P2;PMS_P1;PMS_P2;Temp;Humidity;BMP_temperature;BMP_pressure;BME280_temperature;BME280_humidity;BME280_pressure;Samples;Min_cycle;Max_cycle;Signal;HPM_P1;HPM_P2
2024/05/07 00:02:13;;;;;;;106.13;40.83;;;13.80;99.90;;;;;;5408544;26;20233;-77
2024/05/07 00:04:39;;;;;;;206.90;43.43;;;13.90;99.90;;;;;;5409922;26;20811;-77
2024/05/07 00:07:05;;;;;;;105.30;41.37;;;13.90;99.90;;;;;;5409763;26;20213;-77
2024/05/07 00:09:30;;;;;;;102.03;40.17;;;13.90;99.90;;;;;;5409240;26;20300;-77
2024/05/07 00:11:56;;;;;;;116.67;40.43;;;13.90;99.90;;;;;;5409478;26;20233;-77
2024/05/07 00:14:21;;;;;;;119.30;39.90;;;13.90;99.90;;;;;;5410093;26;20259;-77
2024/05/07 00:16:47;;;;;;;105.30;39.83;;;13.80;99.90;;;;;;5410458;26;20271;-77
2024/05/07 00:19:13;;;;;;;119.57;40.30;;;13.90;99.90;;;;;;5409471;26;20558;-77
2024/05/07 00:21:38;;;;;;;106.53;38.37;;;13.90;99.90;;;;;;5408609;26;20220;-77
2024/05/07 00:24:04;;;;;;;136.30;41.07;;;13.90;99.90;;;;;;5409568;26;20217;-77
2024/05/07 00:26:29;;;;;;;143.80;42.70;;;13.90;99.90;;;;;;5410479;26;20209;-77
2024/05/07 00:28:55;;;;;;;224.40;44.90;;;13.90;99.90;;;;;;5409936;26;20209;-78
2024/05/07 00:31:21;;;;;;;117.60;41.60;;;13.90;99.90;;;;;;5410049;26;20228;-78
2024/05/07 00:33:47;;;;;;;123.27;40.90;;;13.90;99.90;;;;;;5409802;26;20212;-77
2024/05/07 00:36:12;;;;;;;201.13;44.40;;;13.90;99.90;;;;;;5408695;26;20402;-77
2024/05/07 00:38:41;;;;;;;143.63;40.87;;;13.90;99.90;;;;;;5409486;26;20242;-77
2024/05/07 00:41:06;;;;;;;257.27;44.80;;;13.90;99.90;;;;;;5410314;26;20260;-77
2024/05/07 00:43:32;;;;;;;104.10;39.93;;;13.80;99.90;;;;;;5410792;26;20263;-78
2024/05/07 00:45:58;;;;;;;257.43;45.17;;;13.90;99.90;;;;;;5410623;26;20723;-78
2024/05/07 00:48:23;;;;;;;100.43;39.70;;;13.80;99.90;;;;;;5410347;26;20208;-78
2024/05/07 00:50:49;;;;;;;113.10;40.83;;;13.90;99.90;;;;;;5411124;26;20209;-77
2024/05/07 00:53:15;;;;;;;190.07;43.00;;;13.90;99.90;;;;;;5410664;26;20224;-78
2024/05/07 00:55:40;;;;;;;139.03;42.43;;;13.80;99.90;;;;;;5413236;26;20209;-78
2024/05/07 00:58:08;;;;;;;170.40;41.10;;;13.90;99.90;;;;;;5412857;26;20219;-78
2024/05/07 01:00:34;;;;;;;167.23;43.00;;;13.80;99.90;;;;;;5410752;26;20224;-78
2024/05/07 01:03:01;;;;;;;142.97;43.80;;;13.80;99.90;;;;;;5410824;26;20236;-78
2024/05/07 01:05:27;;;;;;;141.23;43.57;;;13.80;99.90;;;;;;5411624;26;20308;-78
2024/05/07 01:07:52;;;;;;;170.27;44.43;;;13.80;99.90;;;;;;5410893;26;20221;-77
2024/05/07 01:10:18;;;;;;;251.80;46.83;;;13.80;99.90;;;;;;5409916;26;20297;-78
2024/05/07 01:12:44;;;;;;;143.50;46.07;;;13.80;99.90;;;;;;5411233;26;20225;-78
2024/05/07 01:15:09;;;;;;;163.67;45.73;;;13.70;99.90;;;;;;5411748;26;20624;-78
2024/05/07 01:17:35;;;;;;;245.67;47.50;;;13.70;99.90;;;;;;5411459;26;20212;-77
2024/05/07 01:20:00;;;;;;;149.70;47.97;;;13.70;99.90;;;;;;5412117;26;20216;-79
2024/05/07 01:22:28;;;;;;;134.03;47.83;;;13.70;99.90;;;;;;5410985;26;20394;-77
2024/05/07 01:24:54;;;;;;;180.50;47.97;;;13.70;99.90;;;;;;5411396;26;20260;-78
2024/05/07 01:27:21;;;;;;;149.17;47.40;;;13.70;99.90;;;;;;5410899;26;20216;-77
2024/05/07 01:29:46;;;;;;;281.43;51.27;;;13.70;99.90;;;;;;5411677;26;20283;-77
2024/05/07 01:32:12;;;;;;;211.93;48.97;;;13.70;99.90;;;;;;5411793;26;20224;-78
2024/05/07 01:34:37;;;;;;;190.60;49.57;;;13.70;99.90;;;;;;5378897;26;20220;-77
2024/05/07 01:37:03;;;;;;;170.47;50.47;;;13.60;99.90;;;;;;5410516;26;20208;-78
2024/05/07 01:39:29;;;;;;;183.43;50.63;;;13.70;99.90;;;;;;5410354;26;20255;-78
2024/05/07 01:41:54;;;;;;;143.43;49.40;;;13.60;99.90;;;;;;5410944;26;20286;-78
2024/05/07 01:44:20;;;;;;;266.10;52.73;;;13.60;99.90;;;;;;5410261;26;20758;-78
2024/05/07 01:46:46;;;;;;;159.00;51.40;;;13.70;99.90;;;;;;5410377;26;20252;-78
2024/05/07 01:49:11;;;;;;;176.63;52.83;;;13.70;99.90;;;;;;5406233;26;20212;-77
2024/05/07 01:51:37;;;;;;;246.70;50.63;;;13.70;99.90;;;;;;5402010;21;20297;-76
2024/05/07 01:54:05;;;;;;;158.10;51.57;;;13.70;99.90;;;;;;5440521;26;20804;-76
2024/05/07 01:56:30;;;;;;;344.60;55.97;;;13.70;99.90;;;;;;5440818;26;20207;-74
2024/05/07 01:58:56;;;;;;;147.17;52.87;;;13.70;99.90;;;;;;5439841;26;20263;-74
2024/05/07 02:01:21;;;;;;;184.30;55.90;;;13.70;99.90;;;;;;5439971;26;20545;-75
2024/05/07 02:03:47;;;;;;;223.20;54.23;;;13.60;99.90;;;;;;5440396;26;20223;-74
2024/05/07 02:06:13;;;;;;;131.93;53.07;;;13.60;99.90;;;;;;5441197;26;20242;-76
2024/05/07 02:08:38;;;;;;;141.30;53.20;;;13.60;99.90;;;;;;5440919;26;20223;-74
2024/05/07 02:11:05;;;;;;;171.87;54.87;;;13.60;99.90;;;;;;5441502;26;20223;-76
2024/05/07 02:13:32;;;;;;;145.33;53.20;;;13.60;99.90;;;;;;5441116;26;20554;-76
2024/05/07 02:15:58;;;;;;;130.33;54.50;;;13.60;99.90;;;;;;5440157;26;20279;-77
2024/05/07 02:18:24;;;;;;;129.83;54.53;;;13.60;99.90;;;;;;5441154;26;20215;-76
2024/05/07 02:20:51;;;;;;;157.37;55.07;;;13.60;99.90;;;;;;5441120;26;20345;-76
2024/05/07 02:23:16;;;;;;;174.23;55.33;;;13.50;99.90;;;;;;5409629;26;20271;-76
2024/05/07 02:25:42;;;;;;;152.47;56.20;;;13.50;99.90;;;;;;5441557;26;20204;-74
2024/05/07 02:28:09;;;;;;;133.53;55.10;;;13.50;99.90;;;;;;5441852;26;20216;-74
2024/05/07 02:30:34;;;;;;;150.73;57.70;;;13.50;99.90;;;;;;5441144;26;20212;-75
2024/05/07 02:33:00;;;;;;;135.00;55.50;;;13.50;99.90;;;;;;5441044;26;20227;-74
2024/05/07 02:35:26;;;;;;;162.60;59.57;;;13.40;99.90;;;;;;5440930;26;20243;-74
2024/05/07 02:37:51;;;;;;;133.40;57.50;;;13.50;99.90;;;;;;5441125;26;20227;-76
2024/05/07 02:40:17;;;;;;;156.97;59.23;;;13.50;99.90;;;;;;5441026;26;20207;-76
2024/05/07 02:42:42;;;;;;;150.10;58.77;;;13.40;99.90;;;;;;5440533;26;20752;-74
2024/05/07 02:45:08;;;;;;;132.47;57.17;;;13.40;99.90;;;;;;5441112;26;20215;-76
2024/05/07 02:47:34;;;;;;;157.63;59.17;;;13.40;99.90;;;;;;5441226;26;20319;-76
2024/05/07 02:50:01;;;;;;;137.30;58.80;;;13.40;99.90;;;;;;5440989;26;20227;-74
2024/05/07 02:52:27;;;;;;;150.50;58.57;;;13.40;99.90;;;;;;5440767;26;20223;-74
2024/05/07 02:54:52;;;;;;;155.20;58.80;;;13.40;99.90;;;;;;5440668;26;20266;-76
2024/05/07 02:57:18;;;;;;;160.97;58.37;;;13.40;99.90;;;;;;5441403;26;20273;-76
2024/05/07 02:59:44;;;;;;;155.03;57.97;;;13.40;99.90;;;;;;5440954;26;20756;-74
2024/05/07 03:02:09;;;;;;;146.93;57.90;;;13.40;99.90;;;;;;5440881;26;20300;-76
2024/05/07 03:04:39;;;;;;;207.37;59.53;;;13.30;99.90;;;;;;5440375;26;20259;-76
2024/05/07 03:07:05;;;;;;;140.73;58.13;;;13.30;99.90;;;;;;5441181;26;20311;-76
2024/05/07 03:09:31;;;;;;;142.03;55.60;;;13.30;99.90;;;;;;5440762;26;20203;-76
2024/05/07 03:11:56;;;;;;;325.23;60.90;;;13.30;99.90;;;;;;5440888;26;20228;-77
2024/05/07 03:14:22;;;;;;;218.53;57.80;;;13.30;99.90;;;;;;5440783;26;20726;-77
2024/05/07 03:16:48;;;;;;;131.97;56.97;;;13.30;99.90;;;;;;5441962;26;20211;-76
2024/05/07 03:19:14;;;;;;;213.40;59.37;;;13.30;99.90;;;;;;5442789;26;20212;-77
2024/05/07 03:21:42;;;;;;;226.80;57.90;;;13.40;99.90;;;;;;5445308;26;20277;-76
2024/05/07 03:24:11;;;;;;;271.00;59.30;;;13.40;99.90;;;;;;5445072;26;20258;-76
2024/05/07 03:26:38;;;;;;;195.03;56.20;;;13.40;99.90;;;;;;5441282;26;20207;-76
2024/05/07 03:29:04;;;;;;;166.10;57.93;;;13.30;99.90;;;;;;5440869;26;20331;-76
2024/05/07 03:31:30;;;;;;;191.90;60.17;;;13.30;99.90;;;;;;5440332;26;20223;-76
2024/05/07 03:33:57;;;;;;;172.83;59.77;;;13.30;99.90;;;;;;5440801;26;20208;-77
2024/05/07 03:36:27;;;;;;;238.50;59.73;;;13.30;99.90;;;;;;5440643;26;20208;-77
2024/05/07 03:38:53;;;;;;;165.67;58.43;;;13.20;99.90;;;;;;5440633;26;20273;-77
2024/05/07 03:41:19;;;;;;;176.50;58.57;;;13.20;99.90;;;;;;5440254;26;20207;-77
2024/05/07 03:43:44;;;;;;;256.17;60.77;;;13.20;99.90;;;;;;5440046;26;20540;-77
2024/05/07 03:46:10;;;;;;;200.90;59.77;;;13.20;99.90;;;;;;5440242;26;20215;-77
2024/05/07 03:48:39;;;;;;;188.83;58.40;;;13.20;99.90;;;;;;5440060;26;20208;-76
2024/05/07 03:51:05;;;;;;;147.67;58.27;;;13.20;99.90;;;;;;5441032;26;20525;-77
2024/05/07 03:53:31;;;;;;;156.83;57.63;;;13.20;99.90;;;;;;5439311;26;20271;-75
2024/05/07 03:55:57;;;;;;;162.37;58.37;;;13.10;99.90;;;;;;5439890;26;20212;-77
2024/05/07 03:58:23;;;;;;;138.10;58.50;;;13.10;99.90;;;;;;5438099;26;20583;-77
2024/05/07 04:00:48;;;;;;;141.20;56.77;;;13.10;99.90;;;;;;5439055;26;20228;-77
2024/05/07 04:03:17;;;;;;;187.33;57.30;;;13.00;99.90;;;;;;5438581;26;20219;-77
2024/05/07 04:05:43;;;;;;;149.53;55.57;;;13.10;99.90;;;;;;5439550;26;20568;-75
2024/05/07 04:08:08;;;;;;;190.43;58.17;;;13.00;99.90;;;;;;5438975;26;20223;-77
2024/05/07 04:10:35;;;;;;;165.40;57.13;;;13.00;99.90;;;;;;5439018;26;20687;-77
2024/05/07 04:13:00;;;;;;;179.87;57.97;;;13.00;99.90;;;;;;5439142;26;20227;-77
2024/05/07 04:15:26;;;;;;;254.50;71.50;;;13.00;99.90;;;;;;5439169;26;20216;-77
2024/05/07 04:17:52;;;;;;;239.87;74.77;;;13.10;99.90;;;;;;5439504;26;20219;-77
2024/05/07 04:20:17;;;;;;;331.10;73.40;;;13.10;99.90;;;;;;5439299;26;20204;-77
2024/05/07 04:22:43;;;;;;;206.13;63.93;;;13.10;99.90;;;;;;5442177;26;20895;-77
2024/05/07 04:25:09;;;;;;;184.27;60.60;;;13.20;99.90;;;;;;5442406;26;20304;-77
2024/05/07 04:27:34;;;;;;;147.83;59.00;;;13.10;99.90;;;;;;5442461;26;20216;-76
2024/05/07 04:30:00;;;;;;;141.70;59.80;;;13.10;99.90;;;;;;5443119;26;20250;-76
2024/05/07 04:32:26;;;;;;;179.43;64.07;;;13.20;99.90;;;;;;5442633;26;20224;-77
2024/05/07 04:34:52;;;;;;;220.60;62.67;;;13.10;99.90;;;;;;5441923;26;20254;-75
2024/05/07 04:37:17;;;;;;;165.83;60.30;;;13.10;99.90;;;;;;5443145;26;20320;-77
2024/05/07 04:39:43;;;;;;;232.93;62.33;;;13.20;99.90;;;;;;5442384;26;20737;-76
2024/05/07 04:42:08;;;;;;;138.23;58.93;;;13.20;99.90;;;;;;5442524;26;20227;-76
2024/05/07 04:44:34;;;;;;;139.27;56.03;;;13.20;99.90;;;;;;5442179;26;20208;-75
2024/05/07 04:46:59;;;;;;;135.43;58.20;;;13.30;99.90;;;;;;5442743;26;20261;-77
2024/05/07 04:49:25;;;;;;;162.47;60.00;;;13.20;99.90;;;;;;5442516;26;20211;-76
2024/05/07 04:51:51;;;;;;;165.10;55.83;;;13.20;99.90;;;;;;5442101;26;20711;-76
2024/05/07 04:54:17;;;;;;;144.70;55.83;;;13.30;99.90;;;;;;5441798;26;20315;-76
2024/05/07 04:56:42;;;;;;;119.73;53.63;;;13.30;99.90;;;;;;5442390;26;20211;-76
2024/05/07 04:59:08;;;;;;;117.53;53.40;;;13.30;99.90;;;;;;5442159;26;20242;-76
2024/05/07 05:01:33;;;;;;;118.97;53.73;;;13.30;99.90;;;;;;5442450;26;20254;-78
2024/05/07 05:03:59;;;;;;;128.90;54.00;;;13.30;99.90;;;;;;5441920;26;20342;-76
2024/05/07 05:06:25;;;;;;;142.60;54.27;;;13.20;99.90;;;;;;5442021;26;20746;-76
2024/05/07 05:08:50;;;;;;;122.10;54.73;;;13.20;99.90;;;;;;5442153;26;20254;-77
2024/05/07 05:11:16;;;;;;;135.17;56.83;;;13.30;99.90;;;;;;5441367;26;20220;-76
2024/05/07 05:13:41;;;;;;;118.67;52.57;;;13.40;99.90;;;;;;5441143;26;20220;-77
2024/05/07 05:16:07;;;;;;;121.97;53.20;;;13.40;99.90;;;;;;5442296;26;20215;-76
2024/05/07 05:18:33;;;;;;;109.17;51.27;;;13.40;99.90;;;;;;5442102;26;20344;-76
2024/05/07 05:20:58;;;;;;;113.93;51.20;;;13.50;99.90;;;;;;5441383;26;20261;-77
2024/05/07 05:23:24;;;;;;;117.93;56.93;;;13.40;99.90;;;;;;5440802;26;20270;-76
2024/05/07 05:25:49;;;;;;;125.20;61.53;;;13.50;99.90;;;;;;5440842;26;20215;-76
2024/05/07 05:28:15;;;;;;;129.30;62.43;;;13.40;99.90;;;;;;5441706;26;20204;-77
2024/05/07 05:30:42;;;;;;;148.30;57.53;;;13.50;99.90;;;;;;5441184;26;20596;-76
2024/05/07 05:33:10;;;;;;;108.93;53.40;;;13.60;99.90;;;;;;5439945;26;20666;-76
2024/05/07 05:35:36;;;;;;;118.03;51.50;;;13.70;99.90;;;;;;5441559;26;20216;-76
2024/05/07 05:38:02;;;;;;;109.10;51.20;;;13.80;99.90;;;;;;5441447;26;20265;-75
2024/05/07 05:40:27;;;;;;;122.47;51.07;;;13.90;99.90;;;;;;5441321;26;20216;-76
2024/05/07 05:42:53;;;;;;;98.27;50.63;;;13.90;99.90;;;;;;5441301;26;20310;-75
2024/05/07 05:45:19;;;;;;;107.63;51.03;;;14.00;99.90;;;;;;5441419;26;20203;-75
2024/05/07 05:47:44;;;;;;;91.30;49.10;;;14.00;99.90;;;;;;5409664;26;20283;-75
2024/05/07 05:50:10;;;;;;;100.90;49.20;;;14.00;99.90;;;;;;5441107;26;20303;-75
2024/05/07 05:52:36;;;;;;;93.30;48.13;;;14.10;99.90;;;;;;5441057;26;20231;-75
2024/05/07 05:55:02;;;;;;;94.60;48.13;;;14.10;99.90;;;;;;5440887;26;20212;-76
2024/05/07 05:57:27;;;;;;;112.50;51.17;;;14.10;99.90;;;;;;5440311;26;20262;-75
2024/05/07 05:59:53;;;;;;;105.33;49.23;;;14.20;99.90;;;;;;5438465;26;20690;-75
2024/05/07 06:02:19;;;;;;;89.80;47.20;;;14.30;99.90;;;;;;5440553;26;20232;-76
2024/05/07 06:04:44;;;;;;;96.90;47.80;;;14.30;99.90;;;;;;5440242;26;20231;-75
2024/05/07 06:07:11;;;;;;;91.27;49.60;;;14.30;99.90;;;;;;5438961;26;20262;-75
2024/05/07 06:09:37;;;;;;;97.47;48.50;;;14.40;99.90;;;;;;5440758;26;20219;-76
2024/05/07 06:12:04;;;;;;;80.67;48.43;;;14.40;99.90;;;;;;5439467;26;20240;-76
2024/05/07 06:14:29;;;;;;;89.60;46.83;;;14.50;99.90;;;;;;5440511;26;20219;-75
2024/05/07 06:16:55;;;;;;;70.77;43.30;;;14.40;99.90;;;;;;5440260;26;20568;-76
2024/05/07 06:19:20;;;;;;;72.40;43.03;;;14.40;99.90;;;;;;5409316;26;20219;-75
2024/05/07 06:21:46;;;;;;;79.20;47.00;;;14.30;99.90;;;;;;5440214;26;20227;-75
2024/05/07 06:24:12;;;;;;;87.27;49.00;;;14.20;99.90;;;;;;5440195;26;20699;-75
2024/05/07 06:26:37;;;;;;;95.57;55.07;;;14.20;99.90;;;;;;5440830;26;20783;-75
2024/05/07 06:29:05;;;;;;;93.30;55.57;;;14.30;99.90;;;;;;5443703;26;20213;-76
2024/05/07 06:31:31;;;;;;;89.07;49.07;;;14.40;99.90;;;;;;5413028;26;20226;-75
2024/05/07 06:33:58;;;;;;;89.53;46.37;;;14.50;99.90;;;;;;5444358;26;20257;-75
2024/05/07 06:36:24;;;;;;;105.23;57.10;;;14.60;99.90;;;;;;5444483;26;20231;-76
2024/05/07 06:38:49;;;;;;;76.27;48.67;;;14.60;99.90;;;;;;5440448;26;20249;-75
2024/05/07 06:41:15;;;;;;;89.87;52.40;;;14.60;99.90;;;;;;5441636;26;20626;-75
2024/05/07 06:43:41;;;;;;;96.83;55.03;;;14.50;99.90;;;;;;5439174;26;20219;-75
2024/05/07 06:46:06;;;;;;;98.43;54.83;;;14.50;99.90;;;;;;5440365;26;20315;-75
2024/05/07 06:48:32;;;;;;;72.53;44.63;;;14.40;99.90;;;;;;5440465;26;20347;-75
2024/05/07 06:50:57;;;;;;;71.33;46.10;;;14.50;99.90;;;;;;5440241;26;20276;-75
2024/05/07 06:53:23;;;;;;;71.90;45.93;;;14.50;99.90;;;;;;5440337;26;20224;-75
2024/05/07 06:55:49;;;;;;;69.70;43.67;;;14.40;99.90;;;;;;5440133;26;20742;-76
2024/05/07 06:58:16;;;;;;;71.70;47.43;;;14.40;99.90;;;;;;5440771;26;20620;-76
2024/05/07 07:00:43;;;;;;;69.37;47.97;;;14.50;99.90;;;;;;5439566;26;20266;-76
2024/05/07 07:03:10;;;;;;;69.97;46.20;;;14.60;99.90;;;;;;5439899;26;20277;-76
2024/05/07 07:05:36;;;;;;;73.60;48.17;;;14.60;99.90;;;;;;5448916;26;20267;-76
2024/05/07 07:08:01;;;;;;;68.20;46.43;;;14.60;99.90;;;;;;5440399;26;20258;-76
2024/05/07 07:10:27;;;;;;;68.00;47.37;;;14.60;99.90;;;;;;5440143;26;20683;-74
2024/05/07 07:12:52;;;;;;;65.60;44.37;;;14.60;99.90;;;;;;5440017;26;20235;-76
2024/05/07 07:15:20;;;;;;;62.33;45.70;;;14.50;99.90;;;;;;5439954;26;20722;-76
2024/05/07 07:17:46;;;;;;;65.23;45.83;;;14.40;99.90;;;;;;5440953;26;20615;-76
2024/05/07 07:20:13;;;;;;;60.87;46.83;;;14.50;99.90;;;;;;5440497;26;20267;-76
2024/05/07 07:22:39;;;;;;;66.80;47.57;;;14.50;99.90;;;;;;5440698;26;20219;-75
2024/05/07 07:25:05;;;;;;;64.53;46.80;;;14.50;99.90;;;;;;5408511;26;20679;-77
2024/05/07 07:27:30;;;;;;;63.43;46.90;;;14.60;99.90;;;;;;5440212;26;20357;-77
2024/05/07 07:29:56;;;;;;;65.37;47.57;;;14.70;99.90;;;;;;5439895;26;20755;-76
2024/05/07 07:32:22;;;;;;;63.03;46.83;;;14.70;99.90;;;;;;5439561;26;20223;-76
2024/05/07 07:34:47;;;;;;;62.70;46.50;;;14.80;99.90;;;;;;5439380;26;20216;-75
2024/05/07 07:37:13;;;;;;;60.70;45.80;;;14.80;99.90;;;;;;5407685;26;20257;-76
2024/05/07 07:39:40;;;;;;;62.37;44.53;;;14.90;99.90;;;;;;5439928;26;20271;-76
2024/05/07 07:42:06;;;;;;;61.93;45.20;;;15.00;99.90;;;;;;5439854;26;20266;-77
2024/05/07 07:44:32;;;;;;;57.73;43.70;;;15.00;99.90;;;;;;5439745;26;20563;-76
2024/05/07 07:46:57;;;;;;;62.17;44.70;;;15.00;99.90;;;;;;5440226;26;20247;-77
2024/05/07 07:49:23;;;;;;;60.13;44.43;;;15.10;99.90;;;;;;5439817;26;20258;-76
2024/05/07 07:51:48;;;;;;;58.90;44.70;;;15.20;99.90;;;;;;5413811;21;20774;-77
2024/05/07 07:54:14;;;;;;;51.13;42.87;;;15.30;99.90;;;;;;5412179;26;20223;-77
2024/05/07 07:56:40;;;;;;;57.03;43.03;;;15.40;99.90;;;;;;5440771;26;20249;-76
2024/05/07 07:59:05;;;;;;;52.90;43.63;;;15.50;99.90;;;;;;5447155;26;20853;-77
2024/05/07 08:01:31;;;;;;;56.20;42.10;;;15.70;99.90;;;;;;5445277;26;20211;-77
2024/05/07 08:03:56;;;;;;;51.17;41.50;;;15.90;99.90;;;;;;5443702;26;20439;-77
2024/05/07 08:06:22;;;;;;;47.53;38.93;;;15.90;99.90;;;;;;5443128;26;20551;-77
2024/05/07 08:08:48;;;;;;;50.77;39.57;;;16.10;99.90;;;;;;5445931;26;20215;-77
2024/05/07 08:11:14;;;;;;;43.43;37.00;;;16.20;99.90;;;;;;5442448;26;20694;-77
2024/05/07 08:13:40;;;;;;;45.30;35.33;;;16.30;99.90;;;;;;5442412;26;20287;-78
2024/05/07 08:16:06;;;;;;;42.33;34.73;;;16.40;99.90;;;;;;5411180;26;20222;-77
2024/05/07 08:18:32;;;;;;;38.17;32.33;;;16.50;99.90;;;;;;5442752;26;20207;-77
2024/05/07 08:21:00;;;;;;;35.50;31.63;;;16.50;99.90;;;;;;5443374;26;20625;-77
2024/05/07 08:23:25;;;;;;;37.17;30.93;;;16.60;99.90;;;;;;5442805;26;20232;-77
2024/05/07 08:25:51;;;;;;;36.10;30.87;;;16.70;99.90;;;;;;5440458;26;20266;-78
2024/05/07 08:28:21;;;;;;;33.43;29.30;;;16.80;99.90;;;;;;5443202;26;20215;-77
2024/05/07 08:30:47;;;;;;;35.47;29.87;;;16.90;99.90;;;;;;5442499;26;20276;-77
2024/05/07 08:33:13;;;;;;;31.83;28.10;;;17.10;99.90;;;;;;5441756;26;20219;-77
2024/05/07 08:35:39;;;;;;;30.83;27.53;;;17.20;99.90;;;;;;5441171;26;20227;-77
2024/05/07 08:38:06;;;;;;;27.13;24.23;;;17.50;99.90;;;;;;5441883;26;20746;-77
2024/05/07 08:40:32;;;;;;;29.33;25.40;;;17.50;99.90;;;;;;5442844;26;20258;-77
2024/05/07 08:42:58;;;;;;;27.13;24.20;;;17.50;99.90;;;;;;5441741;26;20239;-78
2024/05/07 08:45:26;;;;;;;27.03;24.13;;;17.40;99.90;;;;;;5443184;26;20212;-78
2024/05/07 08:47:54;;;;;;;25.40;22.80;;;17.60;99.90;;;;;;5442018;26;20220;-77
2024/05/07 08:50:20;;;;;;;27.17;24.37;;;17.80;99.90;;;;;;5441815;26;20254;-78
2024/05/07 08:52:46;;;;;;;27.03;24.23;;;17.80;99.90;;;;;;5441344;26;20315;-78
2024/05/07 08:55:20;;;;;;;30.83;22.17;;;18.00;99.90;;;;;;5410537;26;20219;-76
2024/05/07 08:57:46;;;;;;;25.53;22.87;;;18.20;99.90;;;;;;5441765;26;20244;-77
2024/05/07 09:00:13;;;;;;;23.50;21.10;;;18.20;99.90;;;;;;5444278;26;20315;-77
2024/05/07 09:02:39;;;;;;;22.53;20.23;;;18.20;99.90;;;;;;5444605;26;20220;-77
2024/05/07 09:05:04;;;;;;;23.33;20.93;;;18.30;99.90;;;;;;5442514;26;20228;-77
2024/05/07 09:07:33;;;;;;;24.20;21.60;;;18.50;99.90;;;;;;5442315;26;20223;-77
2024/05/07 09:10:04;;;;;;;23.20;20.93;;;18.70;99.90;;;;;;5441366;26;20650;-76
2024/05/07 09:12:33;;;;;;;23.33;20.97;;;18.80;99.90;;;;;;5441248;26;20270;-77
2024/05/07 09:14:59;;;;;;;22.50;20.30;;;19.00;99.90;;;;;;5440306;26;20203;-77
2024/05/07 09:17:26;;;;;;;19.88;17.98;;;19.30;99.90;;;;;;5441270;26;20204;-76
2024/05/07 09:19:55;;;;;;;22.40;20.17;;;19.70;99.90;;;;;;5441367;26;20426;-77
2024/05/07 09:22:21;;;;;;;20.98;18.98;;;19.90;99.90;;;;;;5441855;26;20266;-77
2024/05/07 09:24:56;;;;;;;22.67;20.48;;;19.70;99.90;;;;;;5441588;26;20698;-76
2024/05/07 09:27:31;;;;;;;24.70;22.30;;;19.90;99.90;;;;;;5441682;26;20283;-77
2024/05/07 09:29:58;;;;;;;25.98;22.83;;;20.00;99.90;;;;;;5441815;26;20662;-76
2024/05/07 09:32:26;;;;;;;26.60;22.88;;;19.90;99.90;;;;;;5441157;26;20219;-76
2024/05/07 09:34:53;;;;;;;25.92;22.95;;;20.10;99.90;;;;;;5440535;26;20315;-76
2024/05/07 09:37:27;;;;;;;25.75;23.35;;;20.20;99.90;;;;;;5441798;26;20327;-77
2024/05/07 09:40:31;;;;;;;24.60;22.10;;;20.30;99.90;;;;;;5409371;26;20223;-76
2024/05/07 09:42:58;;;;;;;26.02;23.45;;;20.20;99.90;;;;;;5434602;26;20231;-77
2024/05/07 09:45:26;;;;;;;26.83;24.27;;;20.20;99.90;;;;;;5440906;26;20207;-77
2024/05/07 09:47:54;;;;;;;27.08;24.27;;;20.00;99.90;;;;;;5438803;26;20211;-75
2024/05/07 09:50:22;;;;;;;27.60;24.70;;;20.10;99.90;;;;;;5439860;26;20259;-76
2024/05/07 09:52:49;;;;;;;27.55;24.17;;;20.20;99.90;;;;;;5439021;26;20331;-76
2024/05/07 09:55:15;;;;;;;25.30;22.90;;;20.20;99.90;;;;;;5441384;26;20254;-76
2024/05/07 09:57:43;;;;;;;25.20;22.77;;;20.20;99.90;;;;;;5441318;26;20216;-76
2024/05/07 10:00:10;;;;;;;25.25;22.77;;;20.30;99.90;;;;;;5440386;26;20246;-76
2024/05/07 10:02:37;;;;;;;25.92;23.30;;;20.20;99.90;;;;;;5440900;26;20299;-77
2024/05/07 10:05:02;;;;;;;26.15;23.63;;;20.20;99.90;;;;;;5440517;26;20211;-76
2024/05/07 10:07:31;;;;;;;25.00;22.50;;;20.10;99.90;;;;;;5440493;26;20648;-76
2024/05/07 10:10:07;;;;;;;22.02;19.83;;;20.30;99.90;;;;;;5440530;26;20212;-76
2024/05/07 10:12:36;;;;;;;23.08;20.77;;;20.80;99.90;;;;;;5441328;26;20219;-77
2024/05/07 10:15:08;;;;;;;20.65;18.00;;;21.50;99.90;;;;;;5440268;26;20228;-76
2024/05/07 10:17:44;;;;;;;17.58;15.80;;;22.30;99.90;;;;;;5441524;26;20674;-77
2024/05/07 10:20:19;;;;;;;16.90;15.30;;;23.50;99.90;;;;;;5439995;26;20258;-76
2024/05/07 10:23:03;;;;;;;17.60;15.90;;;23.80;99.90;;;;;;5440689;26;20630;-76
2024/05/07 10:25:56;;;;;;;16.48;15.05;;;23.70;99.90;;;;;;5441291;26;20254;-77
2024/05/07 10:28:22;;;;;;;16.63;14.88;;;24.40;99.90;;;;;;5441007;26;20207;-76
2024/05/07 10:30:53;;;;;;;16.05;14.55;;;25.10;99.90;;;;;;5440647;26;20257;-76
2024/05/07 10:33:25;;;;;;;15.95;14.35;;;25.10;99.90;;;;;;5440448;26;20223;-77
2024/05/07 10:35:55;;;;;;;14.93;13.60;;;24.70;99.90;;;;;;5440560;26;20600;-76
2024/05/07 10:38:26;;;;;;;14.75;13.30;;;24.20;99.90;;;;;;5440082;26;20314;-76
2024/05/07 10:41:12;;;;;;;15.38;13.98;;;23.60;99.90;;;;;;5440051;26;20223;-76
2024/05/07 10:43:42;;;;;;;20.15;18.02;;;23.00;99.90;;;;;;5440038;26;20283;-76
2024/05/07 10:46:27;;;;;;;21.33;19.13;;;22.50;99.90;;;;;;5440670;26;20324;-76
2024/05/07 10:48:56;;;;;;;23.42;21.05;;;22.00;99.90;;;;;;5439961;26;20283;-76
2024/05/07 10:51:25;;;;;;;24.55;22.13;;;21.50;99.90;;;;;;5439932;26;20208;-76
2024/05/07 10:53:53;;;;;;;23.95;21.10;;;21.00;99.90;;;;;;5439451;26;20219;-76
2024/05/07 10:56:22;;;;;;;24.70;22.25;;;20.80;99.90;;;;;;5440579;26;20715;-76
2024/05/07 10:58:48;;;;;;;26.30;23.38;;;20.80;99.90;;;;;;5440309;26;20251;-77
2024/05/07 11:01:14;;;;;;;27.05;24.35;;;20.90;99.90;;;;;;5440025;26;20335;-76
2024/05/07 11:03:43;;;;;;;26.40;23.48;;;20.90;99.90;;;;;;5439979;26;20355;-76
2024/05/07 11:06:14;;;;;;;28.55;25.67;;;20.60;99.90;;;;;;5439804;26;20528;-76
2024/05/07 11:08:41;;;;;;;31.47;27.37;;;20.70;99.90;;;;;;5440277;26;20725;-76
2024/05/07 11:11:13;;;;;;;31.23;28.10;;;20.70;99.90;;;;;;5437710;26;21039;-75
2024/05/07 11:13:40;;;;;;;31.85;28.45;;;20.80;99.90;;;;;;5439388;26;20223;-75
2024/05/07 11:16:06;;;;;;;30.80;27.63;;;20.80;99.90;;;;;;5439391;26;20654;-75
2024/05/07 11:18:32;;;;;;;30.73;27.60;;;21.00;99.90;;;;;;5441166;26;20212;-76
2024/05/07 11:21:04;;;;;;;30.48;27.48;;;21.20;99.90;;;;;;5444399;26;20275;-75
2024/05/07 11:23:30;;;;;;;31.73;28.45;;;21.40;99.90;;;;;;5443842;26;20262;-75
2024/05/07 11:25:56;;;;;;;31.83;28.58;;;21.50;99.90;;;;;;5440206;26;20744;-75
2024/05/07 11:28:22;;;;;;;29.35;26.35;;;21.70;99.90;;;;;;5440129;26;20224;-75
2024/05/07 11:30:52;;;;;;;29.35;26.55;;;21.90;99.90;;;;;;5439537;26;20741;-75
2024/05/07 11:33:19;;;;;;;26.27;23.70;;;22.20;99.90;;;;;;5442186;26;20764;-75
2024/05/07 11:35:45;;;;;;;21.35;19.45;;;22.40;99.90;;;;;;5442686;26;20227;-75
2024/05/07 11:38:11;;;;;;;27.70;24.85;;;22.40;99.90;;;;;;5443002;26;20211;-75
2024/05/07 11:40:36;;;;;;;26.98;24.23;;;22.20;99.90;;;;;;5442998;26;20242;-75
2024/05/07 11:43:02;;;;;;;27.10;24.48;;;22.00;99.90;;;;;;5442545;26;20223;-75
2024/05/07 11:45:31;;;;;;;27.75;24.98;;;22.10;99.90;;;;;;5443185;26;20266;-75
2024/05/07 11:47:57;;;;;;;26.90;24.20;;;22.20;99.90;;;;;;5443091;26;20210;-76
2024/05/07 11:50:26;;;;;;;26.55;23.85;;;22.20;99.90;;;;;;5442812;26;20219;-75
2024/05/07 11:52:52;;;;;;;27.13;24.48;;;22.20;99.90;;;;;;5442090;26;20600;-75
2024/05/07 11:55:18;;;;;;;29.20;26.20;;;21.90;99.90;;;;;;5442984;26;20211;-75
2024/05/07 11:57:44;;;;;;;29.17;25.38;;;21.60;99.90;;;;;;5442749;26;20211;-75
2024/05/07 12:00:10;;;;;;;31.40;27.02;;;21.50;99.90;;;;;;5442078;26;20314;-75
2024/05/07 12:02:35;;;;;;;27.40;24.70;;;21.40;99.90;;;;;;5442305;26;20277;-76
2024/05/07 12:05:01;;;;;;;29.27;26.20;;;21.30;99.90;;;;;;5441717;26;20211;-74
2024/05/07 12:07:27;;;;;;;27.73;24.92;;;21.40;99.90;;;;;;5443636;26;20273;-74
2024/05/07 12:09:52;;;;;;;27.13;24.40;;;21.20;99.90;;;;;;5443635;26;20327;-75
2024/05/07 12:12:19;;;;;;;27.50;24.58;;;21.20;99.90;;;;;;5443453;26;20718;-75
2024/05/07 12:14:44;;;;;;;26.92;24.13;;;21.20;99.90;;;;;;5443139;26;20282;-75
2024/05/07 12:17:10;;;;;;;27.83;24.92;;;21.20;99.90;;;;;;5442281;26;20712;-75
2024/05/07 12:19:36;;;;;;;27.67;24.88;;;21.00;99.90;;;;;;5442211;26;20318;-75
2024/05/07 12:27:32;;;;;;;29.27;26.33;;;20.60;99.90;;;;;;5408443;26;20251;-75